Time;durP1;ratioP1;P1;durP2;ratioP2;P2;SDS_P1;SDS_P2;PMS_P1;PMS_P2;Temp;Humidity;BMP_temperature;BMP_pressure;BME280_temperature;BME280_humidity;BME280_pressure;Samples;Min_cycle;Max_cycle;Signal;HPM_P1;HPM_P2
2024/01/27 00:00:44;;;;;;;1999.90;999.90;;;5.50;99.90;;;;;;5082028;28;20463;-65
2024/01/27 00:03:11;;;;;;;1999.90;999.90;;;5.50;99.90;;;;;;5080007;28;20445;-64
2024/01/27 00:05:38;;;;;;;1999.90;999.90;;;5.50;99.90;;;;;;5078525;28;20414;-64
2024/01/27 00:08:06;;;;;;;1999.90;999.90;;;5.50;99.90;;;;;;5079885;28;20462;-64
2024/01/27 00:10:33;;;;;;;1999.90;999.90;;;5.60;99.90;;;;;;5078714;28;20520;-64
2024/01/27 00:13:00;;;;;;;1999.90;999.90;;;5.60;99.90;;;;;;5080548;28;20944;-63
2024/01/27 00:15:26;;;;;;;1999.90;999.90;;;5.70;99.90;;;;;;5079651;28;20455;-64
2024/01/27 00:17:53;;;;;;;1999.90;999.90;;;5.60;99.90;;;;;;5082029;28;20422;-63
2024/01/27 00:20:19;;;;;;;1999.90;999.90;;;5.60;99.90;;;;;;5083313;28;20410;-64
2024/01/27 00:22:47;;;;;;;1999.90;999.90;;;5.60;99.90;;;;;;5084430;28;20433;-65
2024/01/27 00:25:14;;;;;;;1999.90;999.90;;;5.70;99.90;;;;;;5085303;28;20410;-64
2024/01/27 00:27:41;;;;;;;1999.90;999.90;;;5.70;99.90;;;;;;5084131;28;20457;-66
2024/01/27 00:30:11;;;;;;;1999.90;999.90;;;5.70;99.90;;;;;;5076327;28;20453;-65
2024/01/27 00:32:38;;;;;;;1999.90;999.90;;;5.70;99.90;;;;;;5083527;28;20484;-64
2024/01/27 00:35:05;;;;;;;1999.90;999.90;;;5.60;99.90;;;;;;5089327;28;20414;-65
2024/01/27 00:37:31;;;;;;;1999.90;999.90;;;5.60;99.90;;;;;;5088420;28;20438;-61
2024/01/27 00:39:58;;;;;;;1999.90;999.90;;;5.50;99.90;;;;;;5092019;28;20426;-65
2024/01/27 00:42:26;;;;;;;1999.90;999.90;;;5.50;99.90;;;;;;5093543;28;20415;-65
2024/01/27 00:44:53;;;;;;;1999.90;999.90;;;5.40;99.90;;;;;;5092137;28;20455;-63
2024/01/27 00:47:20;;;;;;;1999.90;999.90;;;5.40;99.90;;;;;;5094356;28;20461;-65
2024/01/27 00:49:46;;;;;;;1999.90;999.90;;;5.40;99.90;;;;;;5080209;28;20902;-63
2024/01/27 00:52:13;;;;;;;1999.90;999.90;;;5.40;99.90;;;;;;5087984;28;20444;-65
2024/01/27 00:54:40;;;;;;;1999.90;999.90;;;5.40;99.90;;;;;;5088721;28;20420;-65
2024/01/27 00:57:06;;;;;;;1999.90;999.90;;;5.40;99.90;;;;;;5087954;28;20474;-65
2024/01/27 00:59:34;;;;;;;1999.90;999.90;;;5.40;99.90;;;;;;5094766;28;20434;-65
2024/01/27 01:02:01;;;;;;;1999.90;999.90;;;5.50;99.90;;;;;;5099653;28;20406;-65
2024/01/27 01:04:28;;;;;;;1999.90;999.90;;;5.50;99.90;;;;;;5098159;28;20409;-66
2024/01/27 01:06:54;;;;;;;1999.90;999.90;;;5.50;99.90;;;;;;5105856;28;20536;-64
2024/01/27 01:09:21;;;;;;;1999.90;999.90;;;5.40;99.90;;;;;;5112311;28;20784;-65
2024/01/27 01:11:47;;;;;;;1999.90;999.90;;;5.40;99.90;;;;;;5089686;28;20924;-65
2024/01/27 01:14:14;;;;;;;1999.90;999.90;;;5.40;99.90;;;;;;5085356;28;20459;-64
2024/01/27 01:16:42;;;;;;;1999.90;999.90;;;5.50;99.90;;;;;;5088711;28;20410;-66
2024/01/27 01:19:09;;;;;;;1999.90;999.90;;;5.50;99.90;;;;;;5089688;28;20426;-66
2024/01/27 01:21:35;;;;;;;1999.90;999.90;;;5.40;99.90;;;;;;5087087;28;20525;-65
2024/01/27 01:24:02;;;;;;;1999.90;999.90;;;5.40;99.90;;;;;;5091943;28;20413;-63
2024/01/27 01:26:29;;;;;;;1999.90;999.90;;;5.40;99.90;;;;;;5088016;28;20410;-63
2024/01/27 01:28:55;;;;;;;1999.90;999.90;;;5.30;99.90;;;;;;5088845;28;20450;-66
2024/01/27 01:31:22;;;;;;;1999.90;999.90;;;5.30;99.90;;;;;;5090274;28;20447;-66
2024/01/27 01:33:50;;;;;;;1999.90;999.90;;;5.30;99.90;;;;;;5093014;28;20484;-65
2024/01/27 01:36:17;;;;;;;1999.90;999.90;;;5.40;99.90;;;;;;5087183;28;20420;-64
2024/01/27 01:38:43;;;;;;;1999.90;999.90;;;5.30;99.90;;;;;;5091417;28;20483;-65
2024/01/27 01:41:10;;;;;;;1999.90;999.90;;;5.30;99.90;;;;;;5088333;28;20461;-63
2024/01/27 01:43:37;;;;;;;1999.90;999.90;;;5.20;99.90;;;;;;5091261;28;20406;-65
2024/01/27 01:46:04;;;;;;;1999.90;999.90;;;5.20;99.90;;;;;;5093185;28;20414;-65
2024/01/27 01:48:30;;;;;;;1999.90;999.90;;;5.30;99.90;;;;;;5086683;28;20410;-64
2024/01/27 01:51:00;;;;;;;1999.90;999.90;;;5.30;99.90;;;;;;5093869;28;20808;-65
2024/01/27 01:53:27;;;;;;;1999.90;999.90;;;5.40;99.90;;;;;;5086694;28;20413;-63
2024/01/27 01:55:54;;;;;;;1999.90;999.90;;;5.40;99.90;;;;;;5086827;28;20933;-66
2024/01/27 01:58:21;;;;;;;1999.90;999.90;;;5.50;99.90;;;;;;5085995;28;20921;-63
2024/01/27 02:00:48;;;;;;;1999.90;999.90;;;5.40;99.90;;;;;;5080536;28;20414;-64
2024/01/27 02:03:15;;;;;;;1999.90;999.90;;;5.40;99.90;;;;;;5086121;28;20826;-65
2024/01/27 02:05:41;;;;;;;1999.90;999.90;;;5.30;99.90;;;;;;5090382;28;20978;-64
2024/01/27 02:08:09;;;;;;;1999.90;999.90;;;5.30;99.90;;;;;;5088295;28;20432;-65
2024/01/27 02:10:37;;;;;;;1999.90;999.90;;;5.20;99.90;;;;;;5086289;28;20899;-63
2024/01/27 02:13:05;;;;;;;1999.90;999.90;;;5.20;99.90;;;;;;5085018;28;20806;-62
2024/01/27 02:15:32;;;;;;;1999.90;999.90;;;5.30;99.90;;;;;;5088812;28;20447;-62
2024/01/27 02:17:58;;;;;;;1999.90;999.90;;;5.30;99.90;;;;;;5092589;28;21091;-63
2024/01/27 02:20:25;;;;;;;1999.90;999.90;;;5.20;99.90;;;;;;5084207;28;20406;-62
2024/01/27 02:22:52;;;;;;;1999.90;999.90;;;5.30;99.90;;;;;;5085902;28;20431;-65
2024/01/27 02:25:20;;;;;;;1999.90;999.90;;;5.40;99.90;;;;;;5087421;28;20816;-63
2024/01/27 02:27:46;;;;;;;1999.90;999.90;;;5.40;99.90;;;;;;5086037;28;20416;-65
2024/01/27 02:30:13;;;;;;;1999.90;999.90;;;5.50;99.90;;;;;;5080196;28;20408;-64
2024/01/27 02:32:40;;;;;;;1999.90;999.90;;;5.60;99.90;;;;;;5086226;28;20425;-65
2024/01/27 02:35:07;;;;;;;1999.90;999.90;;;5.60;99.90;;;;;;5083644;28;20415;-65
2024/01/27 02:37:34;;;;;;;1999.90;999.90;;;5.60;99.90;;;;;;5085027;28;20420;-66
2024/01/27 02:40:00;;;;;;;1999.90;999.90;;;5.60;99.90;;;;;;5088943;28;20425;-65
2024/01/27 02:42:28;;;;;;;1999.90;999.90;;;5.60;99.90;;;;;;5084818;28;20765;-67
2024/01/27 02:44:55;;;;;;;1999.90;999.90;;;5.60;99.90;;;;;;5079242;28;20438;-65
2024/01/27 02:47:22;;;;;;;1999.90;999.90;;;5.60;99.90;;;;;;5084447;28;21815;-67
2024/01/27 02:49:48;;;;;;;1999.90;999.90;;;5.70;99.90;;;;;;5083997;28;20406;-65
2024/01/27 02:52:15;;;;;;;1999.90;999.90;;;5.80;99.90;;;;;;5085738;28;20417;-65
2024/01/27 02:54:41;;;;;;;1999.90;999.90;;;5.70;99.90;;;;;;5091246;28;20410;-65
2024/01/27 02:57:08;;;;;;;1999.90;999.90;;;5.70;99.90;;;;;;5076210;28;20893;-65
2024/01/27 02:59:38;;;;;;;1999.90;999.90;;;5.80;99.90;;;;;;5081220;28;20540;-65
2024/01/27 03:02:05;;;;;;;1999.90;999.90;;;5.80;99.90;;;;;;5087361;28;20418;-66
2024/01/27 03:04:32;;;;;;;1999.90;999.90;;;5.90;99.90;;;;;;5083895;28;20757;-65
2024/01/27 03:06:58;;;;;;;1999.90;999.90;;;5.90;99.90;;;;;;5087970;28;21080;-64
2024/01/27 03:09:25;;;;;;;1999.90;999.90;;;5.90;99.90;;;;;;5088308;28;20834;-64
2024/01/27 03:11:52;;;;;;;1999.90;999.90;;;5.90;99.90;;;;;;5082592;28;20422;-64
2024/01/27 03:14:18;;;;;;;1999.90;999.90;;;5.80;99.90;;;;;;5086333;28;20840;-62
2024/01/27 03:16:46;;;;;;;1999.90;999.90;;;5.70;99.90;;;;;;5082966;28;20409;-64
2024/01/27 03:19:13;;;;;;;1999.90;999.90;;;5.70;99.90;;;;;;5087589;28;20431;-65
2024/01/27 03:21:39;;;;;;;1999.90;999.90;;;5.70;99.90;;;;;;5090907;28;20410;-65
2024/01/27 03:24:06;;;;;;;1999.90;999.90;;;5.70;99.90;;;;;;5079028;28;20435;-65
2024/01/27 03:26:33;;;;;;;1999.90;999.90;;;5.80;99.90;;;;;;5085560;28;20506;-66
2024/01/27 03:29:00;;;;;;;1999.90;999.90;;;5.80;99.90;;;;;;5084499;28;20409;-66
2024/01/27 03:31:31;;;;;;;1999.90;999.90;;;5.70;99.90;;;;;;5088337;28;20444;-66
2024/01/27 03:33:59;;;;;;;1999.90;999.90;;;5.80;99.90;;;;;;5090578;28;20568;-63
2024/01/27 03:36:25;;;;;;;1999.90;999.90;;;5.70;99.90;;;;;;5081185;28;20410;-65
2024/01/27 03:38:52;;;;;;;1999.90;999.90;;;5.60;99.90;;;;;;5080107;28;20863;-66
2024/01/27 03:41:19;;;;;;;1999.90;999.90;;;5.50;99.90;;;;;;5085736;28;20439;-63
2024/01/27 03:43:46;;;;;;;1999.90;999.90;;;5.50;99.90;;;;;;5088012;28;20918;-63
2024/01/27 03:46:13;;;;;;;1999.90;999.90;;;5.60;99.90;;;;;;5086832;28;20413;-62
2024/01/27 03:48:39;;;;;;;1999.90;999.90;;;5.50;99.90;;;;;;5082500;28;20420;-60
2024/01/27 03:51:07;;;;;;;1999.90;999.90;;;5.50;99.90;;;;;;5090775;28;20410;-62
2024/01/27 03:53:34;;;;;;;1999.90;999.90;;;5.50;99.90;;;;;;5080607;28;20421;-64
2024/01/27 03:56:02;;;;;;;1999.90;999.90;;;5.40;99.90;;;;;;5085502;28;20487;-64
2024/01/27 03:58:29;;;;;;;1999.90;999.90;;;5.40;99.90;;;;;;5094937;28;20409;-65
2024/01/27 04:00:55;;;;;;;1999.90;999.90;;;5.30;99.90;;;;;;5088832;28;20471;-65
2024/01/27 04:03:22;;;;;;;1999.90;999.90;;;5.30;99.90;;;;;;5074534;28;20419;-64
2024/01/27 04:05:49;;;;;;;1999.90;999.90;;;5.30;99.90;;;;;;5081105;28;20545;-65
2024/01/27 04:08:17;;;;;;;1999.90;999.90;;;5.20;99.90;;;;;;5077815;28;20477;-65
2024/01/27 04:10:43;;;;;;;1999.90;999.90;;;5.20;99.90;;;;;;5087300;28;20410;-64
2024/01/27 04:13:10;;;;;;;1999.90;999.90;;;5.20;99.90;;;;;;5087775;28;20510;-64
2024/01/27 04:15:38;;;;;;;1999.90;999.90;;;5.20;99.90;;;;;;5079099;28;20411;-64
2024/01/27 04:18:05;;;;;;;1999.90;999.90;;;5.20;99.90;;;;;;5075612;28;20423;-64
2024/01/27 04:20:32;;;;;;;1999.90;999.90;;;5.20;99.90;;;;;;5089836;28;20424;-64
2024/01/27 04:22:58;;;;;;;1999.90;999.90;;;5.20;99.90;;;;;;5083590;28;20499;-65
2024/01/27 04:25:26;;;;;;;1999.90;999.90;;;5.20;99.90;;;;;;5087999;28;20459;-64
2024/01/27 04:27:53;;;;;;;1999.90;999.90;;;5.10;99.90;;;;;;5081527;28;20487;-64
2024/01/27 04:30:20;;;;;;;1999.90;999.90;;;5.10;99.90;;;;;;5080134;28;20510;-65
2024/01/27 04:32:49;;;;;;;1999.90;999.90;;;5.00;99.90;;;;;;5084327;28;20460;-65
2024/01/27 04:35:16;;;;;;;1999.90;999.90;;;5.00;99.90;;;;;;5084141;28;20416;-66
2024/01/27 04:37:44;;;;;;;1999.90;999.90;;;4.90;99.90;;;;;;5087190;28;20491;-62
2024/01/27 04:40:11;;;;;;;1999.90;999.90;;;5.00;99.90;;;;;;5080759;28;20427;-64
2024/01/27 04:42:40;;;;;;;1999.90;999.90;;;5.00;99.90;;;;;;5085634;28;20434;-64
2024/01/27 04:45:07;;;;;;;1999.90;999.90;;;4.90;99.90;;;;;;5088430;28;20426;-64
2024/01/27 04:47:34;;;;;;;1999.90;999.90;;;4.90;99.90;;;;;;5090332;28;20406;-65
2024/01/27 04:50:01;;;;;;;1999.90;999.90;;;4.90;99.90;;;;;;5088446;28;20410;-65
2024/01/27 04:52:27;;;;;;;1999.90;999.90;;;5.00;99.90;;;;;;5079155;28;20412;-61
2024/01/27 04:54:54;;;;;;;1999.90;999.90;;;5.00;99.90;;;;;;5083780;28;20426;-64
2024/01/27 04:57:21;;;;;;;1999.90;999.90;;;4.90;99.90;;;;;;5094185;28;20409;-68
2024/01/27 04:59:49;;;;;;;1999.90;999.90;;;4.90;99.90;;;;;;5084532;28;20433;-66
2024/01/27 05:02:15;;;;;;;1999.90;999.90;;;4.90;99.90;;;;;;5081733;28;21115;-65
2024/01/27 05:04:42;;;;;;;1999.90;999.90;;;4.90;99.90;;;;;;5086713;28;20459;-65
2024/01/27 05:07:09;;;;;;;1999.90;999.90;;;4.80;99.90;;;;;;5083012;28;20424;-63
2024/01/27 05:09:36;;;;;;;1999.90;999.90;;;4.80;99.90;;;;;;5078418;28;20432;-63
2024/01/27 05:12:02;;;;;;;1999.90;999.90;;;4.90;99.90;;;;;;5089976;28;20481;-65
2024/01/27 05:14:29;;;;;;;1999.90;999.90;;;4.90;99.90;;;;;;5082592;28;20400;-64
2024/01/27 05:16:57;;;;;;;1999.90;999.90;;;4.90;99.90;;;;;;5090589;28;20478;-63
2024/01/27 05:19:24;;;;;;;1999.90;999.90;;;4.90;99.90;;;;;;5081651;28;20479;-64
2024/01/27 05:21:51;;;;;;;1999.90;999.90;;;4.80;99.90;;;;;;5078528;28;20415;-65
2024/01/27 05:24:17;;;;;;;1999.90;999.90;;;4.80;99.90;;;;;;5079126;28;20428;-65
2024/01/27 05:26:44;;;;;;;1999.90;999.90;;;4.80;99.90;;;;;;5097028;28;20482;-65
2024/01/27 05:29:10;;;;;;;1999.90;999.90;;;4.70;99.90;;;;;;5089897;28;20962;-65
2024/01/27 05:31:37;;;;;;;1999.90;999.90;;;4.70;99.90;;;;;;5095229;28;20405;-66
2024/01/27 05:34:05;;;;;;;1999.90;999.90;;;4.70;99.90;;;;;;5091600;28;20405;-64
2024/01/27 05:36:32;;;;;;;1999.90;999.90;;;4.70;99.90;;;;;;5088460;28;20433;-64
2024/01/27 05:38:58;;;;;;;1999.90;999.90;;;4.80;99.90;;;;;;5087419;28;20453;-64
2024/01/27 05:41:28;;;;;;;1999.90;999.90;;;4.80;99.90;;;;;;5089453;28;20409;-65
2024/01/27 05:43:56;;;;;;;1999.90;999.90;;;4.80;99.90;;;;;;5092170;28;20418;-65
2024/01/27 05:46:23;;;;;;;1999.90;999.90;;;4.80;99.90;;;;;;5078330;28;20433;-65
2024/01/27 05:48:50;;;;;;;1999.90;999.90;;;4.80;99.90;;;;;;5092881;28;20412;-64
2024/01/27 05:51:18;;;;;;;1999.90;999.90;;;4.80;99.90;;;;;;5091057;28;20475;-64
2024/01/27 05:53:46;;;;;;;1999.90;999.90;;;4.80;99.90;;;;;;5114674;28;20432;-64
2024/01/27 05:56:12;;;;;;;1999.90;999.90;;;4.80;99.90;;;;;;5107100;28;20853;-64
2024/01/27 05:58:39;;;;;;;1999.90;999.90;;;4.80;99.90;;;;;;5100818;28;21160;-64
2024/01/27 06:01:06;;;;;;;1999.90;999.90;;;4.70;99.90;;;;;;5093079;28;20418;-64
2024/01/27 06:03:33;;;;;;;1999.90;999.90;;;4.70;99.90;;;;;;5092596;28;20414;-64
2024/01/27 06:06:00;;;;;;;1999.90;999.90;;;4.80;99.90;;;;;;5092318;28;20406;-64
2024/01/27 06:08:28;;;;;;;1999.90;999.90;;;4.80;99.90;;;;;;5092673;28;20465;-65
2024/01/27 06:10:54;;;;;;;1999.90;999.90;;;4.70;99.90;;;;;;5116707;28;20416;-64
2024/01/27 06:13:21;;;;;;;1999.90;999.90;;;4.70;99.90;;;;;;5106226;28;20909;-64
2024/01/27 06:15:47;;;;;;;1999.90;999.90;;;4.80;99.90;;;;;;5081460;28;20949;-64
2024/01/27 06:18:14;;;;;;;1999.90;999.90;;;4.70;99.90;;;;;;5089606;28;20416;-64
2024/01/27 06:20:41;;;;;;;1999.90;999.90;;;4.70;99.90;;;;;;5091917;28;20422;-63
2024/01/27 06:23:07;;;;;;;1999.90;999.90;;;4.80;99.90;;;;;;5091814;28;20957;-64
2024/01/27 06:25:35;;;;;;;1999.90;999.90;;;4.70;99.90;;;;;;5081602;28;20423;-65
2024/01/27 06:28:02;;;;;;;1999.90;999.90;;;4.70;99.90;;;;;;5083257;28;20411;-64
2024/01/27 06:30:29;;;;;;;1999.90;999.90;;;4.80;99.90;;;;;;5083993;28;20418;-65
2024/01/27 06:32:55;;;;;;;1999.90;999.90;;;4.90;99.90;;;;;;5092026;28;20417;-65
2024/01/27 06:35:22;;;;;;;1999.90;999.90;;;4.90;99.90;;;;;;5089933;28;20851;-65
2024/01/27 06:37:50;;;;;;;1999.90;999.90;;;4.80;99.90;;;;;;5102969;28;20461;-65
2024/01/27 06:40:17;;;;;;;1999.90;999.90;;;4.80;99.90;;;;;;5092984;28;20429;-65
2024/01/27 06:42:45;;;;;;;1999.90;999.90;;;4.90;99.90;;;;;;5085578;28;20779;-65
2024/01/27 06:45:12;;;;;;;1999.90;999.90;;;4.90;99.90;;;;;;5091601;28;20446;-64
2024/01/27 06:47:38;;;;;;;1999.90;999.90;;;5.50;99.90;;;;;;5092039;28;20830;-65
2024/01/27 06:50:06;;;;;;;1999.90;999.90;;;4.90;99.90;;;;;;5095353;28;20473;-64
2024/01/27 06:52:32;;;;;;;1999.90;999.90;;;4.80;99.90;;;;;;5102493;28;20480;-65
2024/01/27 06:54:59;;;;;;;1999.90;999.90;;;4.90;99.90;;;;;;5080052;28;20440;-65
2024/01/27 06:57:26;;;;;;;1999.90;999.90;;;4.90;99.90;;;;;;5083943;28;20467;-66
2024/01/27 06:59:55;;;;;;;1999.90;999.90;;;4.80;99.90;;;;;;5090890;28;20426;-65
2024/01/27 07:02:23;;;;;;;1999.90;999.90;;;4.90;99.90;;;;;;5089927;28;20425;-66
2024/01/27 07:04:50;;;;;;;1999.90;999.90;;;4.90;99.90;;;;;;5091707;28;20426;-65
2024/01/27 07:07:17;;;;;;;1999.90;999.90;;;4.90;99.90;;;;;;5091891;28;20414;-65
2024/01/27 07:09:43;;;;;;;1999.90;999.90;;;4.90;99.90;;;;;;5096454;28;20848;-65
2024/01/27 07:12:10;;;;;;;1999.90;999.90;;;4.90;99.90;;;;;;5100116;28;20955;-63
2024/01/27 07:14:37;;;;;;;1999.90;999.90;;;4.90;99.90;;;;;;5097043;28;20437;-66
2024/01/27 07:17:05;;;;;;;1999.90;999.90;;;4.80;99.90;;;;;;5100653;28;20410;-66
2024/01/27 07:19:32;;;;;;;1999.90;999.90;;;4.90;99.90;;;;;;5091543;28;20421;-66
2024/01/27 07:21:59;;;;;;;1999.90;999.90;;;4.80;99.90;;;;;;5087172;28;20531;-64
2024/01/27 07:24:26;;;;;;;1999.90;999.90;;;4.80;99.90;;;;;;5090363;28;20809;-63
2024/01/27 07:26:53;;;;;;;1999.90;999.90;;;4.90;99.90;;;;;;5088561;28;20408;-64
2024/01/27 07:29:20;;;;;;;1999.90;999.90;;;4.90;99.90;;;;;;5085310;28;21064;-64
2024/01/27 07:31:46;;;;;;;1999.90;999.90;;;4.90;99.90;;;;;;5091833;28;20772;-65
2024/01/27 07:34:14;;;;;;;1999.90;999.90;;;5.00;99.90;;;;;;5089718;28;20463;-64
2024/01/27 07:36:41;;;;;;;1999.90;999.90;;;5.00;99.90;;;;;;5091317;28;20413;-65
2024/01/27 07:39:08;;;;;;;1999.90;999.90;;;5.00;99.90;;;;;;5082719;28;20431;-66
2024/01/27 07:41:35;;;;;;;1999.90;999.90;;;5.00;99.90;;;;;;5090701;28;20479;-66
2024/01/27 07:44:08;;;;;;;1999.90;999.90;;;5.00;99.90;;;;;;5085577;28;20413;-66
2024/01/27 07:46:35;;;;;;;1999.90;999.90;;;5.00;99.90;;;;;;5098830;28;20461;-66
2024/01/27 07:49:03;;;;;;;1999.90;999.90;;;5.10;99.90;;;;;;5100681;28;20414;-67
2024/01/27 07:51:31;;;;;;;1999.90;999.90;;;5.20;99.90;;;;;;5091010;28;20692;-64
2024/01/27 07:53:58;;;;;;;1999.90;999.90;;;5.30;99.90;;;;;;5090996;28;20440;-65
2024/01/27 07:56:24;;;;;;;1999.90;999.90;;;5.30;99.90;;;;;;5089807;28;20418;-66
2024/01/27 07:58:51;;;;;;;1999.90;999.90;;;5.80;99.90;;;;;;5091927;28;20439;-66
2024/01/27 08:01:19;;;;;;;1999.90;999.90;;;5.50;99.90;;;;;;5102979;28;20458;-66
2024/01/27 08:03:45;;;;;;;1999.90;999.90;;;5.50;99.90;;;;;;5090423;28;20993;-64
2024/01/27 08:06:17;;;;;;;1999.90;999.90;;;5.50;99.90;;;;;;5100105;28;20828;-65
2024/01/27 08:08:46;;;;;;;1999.90;999.90;;;5.60;99.90;;;;;;5096543;28;20413;-65
2024/01/27 08:11:13;;;;;;;1999.90;999.90;;;5.60;99.90;;;;;;5090351;28;20421;-64
2024/01/27 08:13:40;;;;;;;1999.90;999.90;;;5.60;99.90;;;;;;5085872;28;20419;-64
2024/01/27 08:16:09;;;;;;;1999.90;999.90;;;5.60;99.90;;;;;;5084425;28;20428;-65
2024/01/27 08:18:36;;;;;;;1999.90;999.90;;;5.70;99.90;;;;;;5099506;28;20983;-66
2024/01/27 08:21:03;;;;;;;1999.90;999.90;;;5.70;99.90;;;;;;5085960;28;20436;-65
2024/01/27 08:23:29;;;;;;;1999.90;999.90;;;5.80;99.90;;;;;;5092568;28;20421;-65
2024/01/27 08:25:57;;;;;;;1999.90;999.90;;;5.90;99.90;;;;;;5094294;28;20402;-62
2024/01/27 08:28:24;;;;;;;1999.90;999.90;;;6.00;99.90;;;;;;5075263;28;20417;-63
2024/01/27 08:30:51;;;;;;;1999.90;999.90;;;6.10;99.90;;;;;;5076271;28;20465;-66
2024/01/27 08:33:18;;;;;;;1999.90;999.90;;;6.10;99.90;;;;;;5089609;28;20414;-65
2024/01/27 08:35:47;;;;;;;1999.90;999.90;;;6.20;99.90;;;;;;5085672;28;20480;-63
2024/01/27 08:38:13;;;;;;;1999.90;999.90;;;6.30;99.90;;;;;;5096247;28;20413;-65
2024/01/27 08:40:40;;;;;;;1999.90;999.90;;;6.40;99.90;;;;;;5089170;28;20426;-66
2024/01/27 08:43:09;;;;;;;1999.90;999.90;;;6.50;99.90;;;;;;5102568;28;20438;-66
2024/01/27 08:45:37;;;;;;;1999.90;999.90;;;6.60;99.90;;;;;;5087325;28;20461;-66
2024/01/27 08:48:04;;;;;;;1999.90;999.90;;;6.80;99.90;;;;;;5089735;28;20414;-67
2024/01/27 08:50:31;;;;;;;1999.90;999.90;;;6.80;99.90;;;;;;5080607;28;20473;-65
2024/01/27 08:52:58;;;;;;;1999.90;999.90;;;6.90;99.90;;;;;;5089553;28;20451;-65
2024/01/27 08:55:24;;;;;;;1999.90;999.90;;;6.90;99.90;;;;;;5085896;28;20445;-63
2024/01/27 08:57:51;;;;;;;1999.90;999.90;;;7.00;99.90;;;;;;5089439;28;20431;-64
2024/01/27 09:00:19;;;;;;;1999.90;999.90;;;7.10;99.90;;;;;;5088662;28;20949;-63
2024/01/27 09:02:47;;;;;;;1999.90;999.90;;;7.20;99.90;;;;;;5087931;28;20435;-65
2024/01/27 09:05:14;;;;;;;1999.90;999.90;;;7.30;99.90;;;;;;5099956;28;20412;-65
2024/01/27 09:07:41;;;;;;;1999.90;999.90;;;7.30;99.90;;;;;;5082488;28;20435;-65
2024/01/27 09:10:09;;;;;;;1999.90;999.90;;;7.20;99.90;;;;;;5091694;28;20443;-65
2024/01/27 09:12:35;;;;;;;1999.90;999.90;;;7.40;99.90;;;;;;5083709;28;20931;-64
2024/01/27 09:15:02;;;;;;;1999.90;999.90;;;7.40;99.90;;;;;;5104197;28;20404;-64
2024/01/27 09:17:30;;;;;;;1999.90;999.90;;;7.40;99.90;;;;;;5101413;28;20406;-68
2024/01/27 09:19:57;;;;;;;1999.90;999.90;;;7.50;99.90;;;;;;5087727;28;20428;-63
2024/01/27 09:22:24;;;;;;;1999.90;999.90;;;7.50;99.90;;;;;;5093481;28;20453;-65
2024/01/27 09:24:52;;;;;;;1999.90;999.90;;;7.60;99.90;;;;;;5094181;28;21003;-66
2024/01/27 09:27:18;;;;;;;1999.90;999.90;;;7.70;99.90;;;;;;5098170;28;20769;-65
2024/01/27 09:29:45;;;;;;;1999.90;999.90;;;7.80;99.90;;;;;;5093537;28;20429;-65
2024/01/27 09:32:12;;;;;;;1999.90;999.90;;;7.80;99.90;;;;;;5098709;28;20406;-65
2024/01/27 09:34:39;;;;;;;1999.90;999.90;;;7.70;99.90;;;;;;5093134;28;20413;-67
2024/01/27 09:37:06;;;;;;;1999.90;999.90;;;7.80;99.90;;;;;;5093032;28;20949;-65
2024/01/27 09:39:33;;;;;;;1999.90;999.90;;;7.80;99.90;;;;;;5093238;28;20425;-66
2024/01/27 09:42:03;;;;;;;1999.90;999.90;;;7.80;99.90;;;;;;5089983;28;20421;-67
2024/01/27 09:44:32;;;;;;;1999.90;999.90;;;8.00;99.90;;;;;;5096364;28;20425;-65
2024/01/27 09:46:59;;;;;;;1999.90;999.90;;;7.90;99.90;;;;;;5097408;28;20424;-66
2024/01/27 09:49:27;;;;;;;1999.90;999.90;;;7.90;99.90;;;;;;5093495;28;20981;-67
2024/01/27 09:51:56;;;;;;;1999.90;999.90;;;7.30;99.90;;;;;;5093018;28;20429;-67
2024/01/27 09:54:23;;;;;;;1999.90;999.90;;;8.00;99.90;;;;;;5092385;28;21184;-65
2024/01/27 09:56:51;;;;;;;1999.90;999.90;;;8.00;99.90;;;;;;5093022;28;20986;-65
2024/01/27 09:59:20;;;;;;;1999.90;999.90;;;8.00;99.90;;;;;;5095847;28;20434;-61
2024/01/27 10:01:46;;;;;;;1999.90;999.90;;;8.10;99.90;;;;;;5096770;28;20811;-65
2024/01/27 10:04:14;;;;;;;1999.90;999.90;;;8.00;99.90;;;;;;5092741;28;20410;-67
2024/01/27 10:06:42;;;;;;;1999.90;999.90;;;8.10;99.90;;;;;;5092895;28;20410;-66
2024/01/27 10:09:10;;;;;;;1999.90;999.90;;;8.10;99.90;;;;;;5092393;28;20966;-66
2024/01/27 10:11:40;;;;;;;1999.90;999.90;;;8.10;99.90;;;;;;5088635;28;20402;-65
2024/01/27 10:14:07;;;;;;;1999.90;999.90;;;8.20;99.90;;;;;;5102459;28;20430;-66
2024/01/27 10:16:42;;;;;;;1999.90;999.90;;;8.20;99.90;;;;;;5099950;28;20407;-66
2024/01/27 10:19:15;;;;;;;1999.90;999.90;;;8.20;99.90;;;;;;5092624;28;20494;-65
2024/01/27 10:21:41;;;;;;;1999.90;999.90;;;8.20;99.90;;;;;;5092101;28;20422;-65
2024/01/27 10:24:09;;;;;;;1999.90;999.90;;;8.10;99.90;;;;;;5092331;28;20410;-66
2024/01/27 10:26:36;;;;;;;1999.90;999.90;;;8.10;99.90;;;;;;5090789;28;20888;-62
2024/01/27 10:29:03;;;;;;;1999.90;999.90;;;8.10;99.90;;;;;;5090700;28;20481;-66
2024/01/27 10:31:30;;;;;;;1999.90;999.90;;;8.10;99.90;;;;;;5094832;28;20965;-66
2024/01/27 10:33:57;;;;;;;1999.90;999.90;;;8.10;99.90;;;;;;5092215;28;20795;-62
2024/01/27 10:36:24;;;;;;;1999.90;999.90;;;8.10;99.90;;;;;;5089131;28;20419;-65
2024/01/27 10:38:52;;;;;;;1999.90;999.90;;;8.10;99.90;;;;;;5071943;28;21086;-66
2024/01/27 10:41:23;;;;;;;1999.90;999.90;;;8.20;99.90;;;;;;5071904;28;20767;-66
2024/01/27 10:43:52;;;;;;;1999.90;999.90;;;8.20;99.90;;;;;;5085712;28;20517;-67
2024/01/27 10:46:21;;;;;;;1999.90;999.90;;;8.20;99.90;;;;;;5096098;28;20499;-66
2024/01/27 10:48:51;;;;;;;1999.90;999.90;;;8.30;99.90;;;;;;5091555;28;20496;-66
2024/01/27 10:51:23;;;;;;;1999.90;999.90;;;8.40;99.90;;;;;;5091809;28;20406;-65
2024/01/27 10:53:52;;;;;;;1999.90;999.90;;;8.40;99.90;;;;;;5091608;28;20409;-64
2024/01/27 10:56:22;;;;;;;1999.90;999.90;;;8.40;99.90;;;;;;5091751;28;20922;-65
2024/01/27 10:58:51;;;;;;;1999.90;999.90;;;8.40;99.90;;;;;;5089582;28;20451;-66
2024/01/27 11:01:22;;;;;;;1999.90;999.90;;;8.40;99.90;;;;;;5095261;28;20498;-66
2024/01/27 11:03:49;;;;;;;1999.90;999.90;;;8.60;99.90;;;;;;5091324;28;20428;-65
2024/01/27 11:06:17;;;;;;;1999.90;999.90;;;8.50;99.90;;;;;;5091261;28;20447;-68
2024/01/27 11:08:44;;;;;;;1999.90;999.90;;;8.40;99.90;;;;;;5091041;28;20459;-66
2024/01/27 11:11:12;;;;;;;1999.90;999.90;;;8.60;99.90;;;;;;5089473;28;20877;-65
2024/01/27 11:13:40;;;;;;;1999.90;999.90;;;8.70;99.90;;;;;;5093151;28;20409;-64
2024/01/27 11:16:15;;;;;;;1999.90;999.90;;;8.70;99.90;;;;;;5088298;28;20410;-67
2024/01/27 11:18:43;;;;;;;1999.90;999.90;;;8.60;99.90;;;;;;5090633;28;20466;-64
2024/01/27 11:21:15;;;;;;;1999.90;999.90;;;8.60;99.90;;;;;;5090697;28;20826;-64
2024/01/27 11:23:41;;;;;;;1999.90;999.90;;;8.60;99.90;;;;;;5091275;28;20871;-65
2024/01/27 11:26:09;;;;;;;1999.90;999.90;;;8.50;99.90;;;;;;5088649;28;20471;-66
2024/01/27 11:28:37;;;;;;;1999.90;999.90;;;8.50;99.90;;;;;;5095200;28;20433;-66
2024/01/27 11:31:09;;;;;;;1999.90;999.90;;;8.70;99.90;;;;;;5093036;28;20406;-64
2024/01/27 11:33:42;;;;;;;1999.90;999.90;;;8.60;99.90;;;;;;5090303;28;20413;-65
2024/01/27 11:36:09;;;;;;;1999.90;999.90;;;8.60;99.90;;;;;;5090318;28;20840;-64
2024/01/27 11:38:35;;;;;;;1999.90;999.90;;;8.60;99.90;;;;;;5088394;28;20483;-65
2024/01/27 11:41:02;;;;;;;1999.90;999.90;;;8.70;99.90;;;;;;5085763;28;20505;-66
2024/01/27 11:43:29;;;;;;;1999.90;999.90;;;8.70;99.90;;;;;;5083046;28;20421;-66
2024/01/27 11:45:57;;;;;;;1999.90;999.90;;;8.80;99.90;;;;;;5096608;28;20417;-65
2024/01/27 11:48:25;;;;;;;1999.90;999.90;;;8.80;99.90;;;;;;5090977;28;20825;-66
2024/01/27 11:51:07;;;;;;;1999.90;999.90;;;8.80;99.90;;;;;;5090115;28;20421;-66
2024/01/27 11:53:34;;;;;;;1999.90;999.90;;;8.80;99.90;;;;;;5090568;28;20410;-68
2024/01/27 11:56:01;;;;;;;1999.90;999.90;;;8.80;99.90;;;;;;5090713;28;20899;-67
2024/01/27 11:58:28;;;;;;;1999.90;999.90;;;8.90;99.90;;;;;;5091225;28;20432;-66
2024/01/27 12:00:55;;;;;;;1999.90;999.90;;;9.00;99.90;;;;;;5095488;28;21123;-66
2024/01/27 12:03:22;;;;;;;1999.90;999.90;;;8.90;99.90;;;;;;5090396;28;20421;-65
2024/01/27 12:05:50;;;;;;;1999.90;999.90;;;8.80;99.90;;;;;;5090673;28;20417;-65
2024/01/27 12:08:17;;;;;;;1999.90;999.90;;;8.90;99.90;;;;;;5090705;28;20461;-66